sensor_id;sensor_type;location;lat;lon;timestamp;pressure;altitude;pressure_sealevel;temperature;humidity
67015;BME280;1033;52.560;13.374;2023-08-07T00:01:30;99707.53;;;14.56;100.00
67015;BME280;1033;52.560;13.374;2023-08-07T00:03:59;99705.13;;;14.59;100.00
67015;BME280;1033;52.560;13.374;2023-08-07T00:09:48;99701.97;;;14.46;100.00
67015;BME280;1033;52.560;13.374;2023-08-07T00:20:25;99707.44;;;14.46;100.00
67015;BME280;1033;52.560;13.374;2023-08-07T00:22:54;99716.78;;;14.55;100.00
67015;BME280;1033;52.560;13.374;2023-08-07T00:25:23;99708.59;;;14.55;100.00
67015;BME280;1033;52.560;13.374;2023-08-07T00:27:52;99704.19;;;14.49;100.00
67015;BME280;1033;52.560;13.374;2023-08-07T00:30:22;99697.66;;;14.50;100.00
67015;BME280;1033;52.560;13.374;2023-08-07T00:32:51;99707.78;;;14.54;100.00
67015;BME280;1033;52.560;13.374;2023-08-07T00:35:20;99694.03;;;14.66;100.00
67015;BME280;1033;52.560;13.374;2023-08-07T00:37:51;99698.41;;;14.72;100.00
67015;BME280;1033;52.560;13.374;2023-08-07T00:40:21;99688.88;;;14.69;100.00
67015;BME280;1033;52.560;13.374;2023-08-07T00:42:50;99693.59;;;14.79;100.00
67015;BME280;1033;52.560;13.374;2023-08-07T00:45:20;99691.94;;;14.78;100.00
67015;BME280;1033;52.560;13.374;2023-08-07T00:47:50;99693.31;;;14.75;100.00
67015;BME280;1033;52.560;13.374;2023-08-07T00:50:19;99698.41;;;14.72;100.00
67015;BME280;1033;52.560;13.374;2023-08-07T00:52:54;99691.66;;;14.74;100.00
67015;BME280;1033;52.560;13.374;2023-08-07T00:55:23;99691.84;;;14.68;100.00
67015;BME280;1033;52.560;13.374;2023-08-07T00:57:53;99689.44;;;14.71;100.00
67015;BME280;1033;52.560;13.374;2023-08-07T01:00:22;99693.78;;;14.72;100.00
67015;BME280;1033;52.560;13.374;2023-08-07T01:02:52;99687.22;;;14.68;100.00
67015;BME280;1033;52.560;13.374;2023-08-07T01:05:24;99690.81;;;14.74;100.00
67015;BME280;1033;52.560;13.374;2023-08-07T01:07:55;99696.31;;;14.79;100.00
67015;BME280;1033;52.560;13.374;2023-08-07T01:10:34;99692.47;;;14.75;100.00
67015;BME280;1033;52.560;13.374;2023-08-07T01:13:23;99685.66;;;14.77;100.00
67015;BME280;1033;52.560;13.374;2023-08-07T01:15:55;99687.56;;;14.77;100.00
67015;BME280;1033;52.560;13.374;2023-08-07T01:18:26;99685.56;;;14.67;100.00
67015;BME280;1033;52.560;13.374;2023-08-07T01:20:56;99690.25;;;14.72;100.00
67015;BME280;1033;52.560;13.374;2023-08-07T01:23:28;99681.31;;;14.76;100.00
67015;BME280;1033;52.560;13.374;2023-08-07T01:25:57;99671.19;;;14.72;100.00
67015;BME280;1033;52.560;13.374;2023-08-07T01:28:38;99670.69;;;14.75;100.00
67015;BME280;1033;52.560;13.374;2023-08-07T01:31:13;99672.84;;;14.73;100.00
67015;BME280;1033;52.560;13.374;2023-08-07T01:33:47;99661.94;;;14.73;100.00
67015;BME280;1033;52.560;13.374;2023-08-07T01:36:20;99659.50;;;14.71;100.00
67015;BME280;1033;52.560;13.374;2023-08-07T01:38:52;99658.09;;;14.69;100.00
67015;BME280;1033;52.560;13.374;2023-08-07T01:41:22;99653.72;;;14.68;100.00
67015;BME280;1033;52.560;13.374;2023-08-07T01:43:51;99650.97;;;14.63;100.00
67015;BME280;1033;52.560;13.374;2023-08-07T01:46:20;99650.97;;;14.63;100.00
67015;BME280;1033;52.560;13.374;2023-08-07T01:48:49;99653.63;;;14.58;100.00
67015;BME280;1033;52.560;13.374;2023-08-07T01:51:20;99650.31;;;14.51;100.00
67015;BME280;1033;52.560;13.374;2023-08-07T01:53:51;99655.66;;;14.41;100.00
67015;BME280;1033;52.560;13.374;2023-08-07T01:56:20;99650.13;;;14.35;100.00
67015;BME280;1033;52.560;13.374;2023-08-07T01:58:49;99655.66;;;14.41;100.00
67015;BME280;1033;52.560;13.374;2023-08-07T02:01:19;99658.91;;;14.38;100.00
67015;BME280;1033;52.560;13.374;2023-08-07T02:03:48;99654.94;;;14.28;100.00
67015;BME280;1033;52.560;13.374;2023-08-07T02:06:19;99656.72;;;14.40;100.00
67015;BME280;1033;52.560;13.374;2023-08-07T02:08:48;99654.00;;;14.40;100.00
67015;BME280;1033;52.560;13.374;2023-08-07T02:11:18;99656.66;;;14.34;100.00
67015;BME280;1033;52.560;13.374;2023-08-07T02:13:47;99655.81;;;14.34;100.00
67015;BME280;1033;52.560;13.374;2023-08-07T02:16:16;99655.00;;;14.33;100.00
67015;BME280;1033;52.560;13.374;2023-08-07T02:18:47;99665.78;;;14.45;100.00
67015;BME280;1033;52.560;13.374;2023-08-07T02:21:16;99670.69;;;14.48;100.00
67015;BME280;1033;52.560;13.374;2023-08-07T02:23:45;99673.78;;;14.57;100.00
67015;BME280;1033;52.560;13.374;2023-08-07T02:26:14;99669.66;;;14.54;100.00
67015;BME280;1033;52.560;13.374;2023-08-07T02:28:45;99670.88;;;14.68;100.00
67015;BME280;1033;52.560;13.374;2023-08-07T02:31:14;99672.84;;;14.73;100.00
67015;BME280;1033;52.560;13.374;2023-08-07T02:33:43;99669.38;;;14.83;100.00
67015;BME280;1033;52.560;13.374;2023-08-07T02:36:12;99675.59;;;14.78;100.00
67015;BME280;1033;52.560;13.374;2023-08-07T02:38:41;99680.03;;;14.84;100.00
67015;BME280;1033;52.560;13.374;2023-08-07T02:41:10;99672.44;;;14.86;100.00
67015;BME280;1033;52.560;13.374;2023-08-07T02:43:39;99678.66;;;14.87;100.00
67015;BME280;1033;52.560;13.374;2023-08-07T02:46:10;99678.94;;;14.85;100.00
67015;BME280;1033;52.560;13.374;2023-08-07T02:48:39;99682.22;;;14.87;100.00
67015;BME280;1033;52.560;13.374;2023-08-07T02:51:08;99687.41;;;14.89;100.00
67015;BME280;1033;52.560;13.374;2023-08-07T02:53:38;99680.06;;;14.89;100.00
67015;BME280;1033;52.560;13.374;2023-08-07T02:56:07;99686.03;;;14.86;100.00
67015;BME280;1033;52.560;13.374;2023-08-07T02:58:36;99678.38;;;14.83;100.00
67015;BME280;1033;52.560;13.374;2023-08-07T03:01:05;99682.50;;;14.86;100.00
67015;BME280;1033;52.560;13.374;2023-08-07T03:03:36;99678.94;;;14.85;100.00
67015;BME280;1033;52.560;13.374;2023-08-07T03:06:05;99682.22;;;14.87;100.00
67015;BME280;1033;52.560;13.374;2023-08-07T03:08:35;99678.91;;;14.80;100.00
67015;BME280;1033;52.560;13.374;2023-08-07T03:11:04;99685.25;;;14.91;100.00
67015;BME280;1033;52.560;13.374;2023-08-07T03:13:33;99684.44;;;14.90;100.00
67015;BME280;1033;52.560;13.374;2023-08-07T03:16:03;99681.72;;;14.90;100.00
67015;BME280;1033;52.560;13.374;2023-08-07T03:18:35;99686.03;;;14.86;100.00
67015;BME280;1033;52.560;13.374;2023-08-07T03:21:04;99682.69;;;14.79;100.00
67015;BME280;1033;52.560;13.374;2023-08-07T03:23:34;99682.50;;;14.86;100.00
67015;BME280;1033;52.560;13.374;2023-08-07T03:26:06;99687.13;;;14.85;100.00
67015;BME280;1033;52.560;13.374;2023-08-07T03:28:39;99691.00;;;14.94;100.00
67015;BME280;1033;52.560;13.374;2023-08-07T03:31:09;99695.94;;;14.97;100.00
67015;BME280;1033;52.560;13.374;2023-08-07T03:33:39;99689.94;;;14.95;100.00
67015;BME280;1033;52.560;13.374;2023-08-07T03:36:08;99695.06;;;14.92;100.00
67015;BME280;1033;52.560;13.374;2023-08-07T03:38:38;99696.97;;;14.91;100.00
67015;BME280;1033;52.560;13.374;2023-08-07T03:41:08;99699.72;;;14.96;100.00
67015;BME280;1033;52.560;13.374;2023-08-07T03:43:40;99696.47;;;14.94;100.00
67015;BME280;1033;52.560;13.374;2023-08-07T03:46:10;99691.00;;;14.94;100.00
67015;BME280;1033;52.560;13.374;2023-08-07T03:48:41;99704.38;;;15.01;100.00
67015;BME280;1033;52.560;13.374;2023-08-07T03:51:10;99699.22;;;14.99;100.00
67015;BME280;1033;52.560;13.374;2023-08-07T03:53:44;99700.34;;;15.03;100.00
67015;BME280;1033;52.560;13.374;2023-08-07T03:56:14;99699.72;;;14.96;100.00
67015;BME280;1033;52.560;13.374;2023-08-07T03:58:43;99693.47;;;14.96;100.00
67015;BME280;1033;52.560;13.374;2023-08-07T04:01:13;99690.47;;;14.97;100.00
67015;BME280;1033;52.560;13.374;2023-08-07T04:03:46;99692.22;;;15.08;100.00
67015;BME280;1033;52.560;13.374;2023-08-07T04:06:15;99703.09;;;15.08;100.00
67015;BME280;1033;52.560;13.374;2023-08-07T04:08:45;99702.56;;;15.11;100.00
67015;BME280;1033;52.560;13.374;2023-08-07T04:11:15;99709.47;;;15.19;100.00
67015;BME280;1033;52.560;13.374;2023-08-07T04:13:44;99697.25;;;15.27;100.00
67015;BME280;1033;52.560;13.374;2023-08-07T04:16:14;99700.59;;;15.34;100.00
67015;BME280;1033;52.560;13.374;2023-08-07T04:18:46;99696.63;;;15.51;100.00
67015;BME280;1033;52.560;13.374;2023-08-07T04:21:15;99692.06;;;15.62;100.00
67015;BME280;1033;52.560;13.374;2023-08-07T04:23:44;99694.63;;;15.84;100.00
67015;BME280;1033;52.560;13.374;2023-08-07T04:26:13;99705.03;;;15.87;100.00
67015;BME280;1033;52.560;13.374;2023-08-07T04:28:43;99699.56;;;15.87;100.00
67015;BME280;1033;52.560;13.374;2023-08-07T04:31:12;99692.13;;;15.72;100.00
67015;BME280;1033;52.560;13.374;2023-08-07T04:33:41;99697.69;;;15.92;100.00
67015;BME280;1033;52.560;13.374;2023-08-07T04:36:12;99700.38;;;15.87;100.00
67015;BME280;1033;52.560;13.374;2023-08-07T04:38:41;99696.50;;;15.73;100.00
67015;BME280;1033;52.560;13.374;2023-08-07T04:41:10;99706.16;;;16.01;100.00
67015;BME280;1033;52.560;13.374;2023-08-07T04:43:39;99705.16;;;16.27;100.00
67015;BME280;1033;52.560;13.374;2023-08-07T04:46:14;99705.13;;;16.17;100.00
67015;BME280;1033;52.560;13.374;2023-08-07T04:48:43;99701.84;;;16.10;100.00
67015;BME280;1033;52.560;13.374;2023-08-07T04:51:14;99706.41;;;15.94;100.00
67015;BME280;1033;52.560;13.374;2023-08-07T04:53:43;99712.09;;;15.88;100.00
67015;BME280;1033;52.560;13.374;2023-08-07T04:56:13;99711.59;;;15.91;100.00
67015;BME280;1033;52.560;13.374;2023-08-07T04:58:42;99714.22;;;16.43;100.00
67015;BME280;1033;52.560;13.374;2023-08-07T05:01:11;99716.81;;;17.20;94.79
67015;BME280;1033;52.560;13.374;2023-08-07T05:03:40;99712.44;;;17.09;91.96
67015;BME280;1033;52.560;13.374;2023-08-07T05:06:09;99714.06;;;17.66;92.13
67015;BME280;1033;52.560;13.374;2023-08-07T05:08:40;99724.19;;;17.65;88.93
67015;BME280;1033;52.560;13.374;2023-08-07T05:11:09;99729.66;;;17.60;89.83
67015;BME280;1033;52.560;13.374;2023-08-07T05:13:39;99732.25;;;18.06;86.05
67015;BME280;1033;52.560;13.374;2023-08-07T05:16:08;99734.41;;;18.24;85.20
67015;BME280;1033;52.560;13.374;2023-08-07T05:18:37;99728.56;;;17.71;86.47
67015;BME280;1033;52.560;13.374;2023-08-07T05:21:06;99737.59;;;17.11;89.41
67015;BME280;1033;52.560;13.374;2023-08-07T05:23:41;99734.00;;;16.90;90.28
67015;BME280;1033;52.560;13.374;2023-08-07T05:26:10;99739.78;;;17.19;89.43
67015;BME280;1033;52.560;13.374;2023-08-07T05:28:40;99737.53;;;16.76;91.76
67015;BME280;1033;52.560;13.374;2023-08-07T05:31:09;99735.06;;;16.59;93.60
67015;BME280;1033;52.560;13.374;2023-08-07T05:33:38;99735.47;;;16.26;94.80
67015;BME280;1033;52.560;13.374;2023-08-07T05:36:07;99739.75;;;16.01;96.92
67015;BME280;1033;52.560;13.374;2023-08-07T05:38:36;99736.66;;;15.93;98.28
67015;BME280;1033;52.560;13.374;2023-08-07T05:41:08;99739.19;;;16.04;97.77
67015;BME280;1033;52.560;13.374;2023-08-07T05:43:37;99746.88;;;16.13;98.29
67015;BME280;1033;52.560;13.374;2023-08-07T05:46:06;99744.94;;;16.08;96.75
67015;BME280;1033;52.560;13.374;2023-08-07T05:48:35;99752.69;;;16.26;95.18
67015;BME280;1033;52.560;13.374;2023-08-07T05:51:04;99756.78;;;16.34;94.60
67015;BME280;1033;52.560;13.374;2023-08-07T05:53:35;99757.75;;;16.60;95.26
67015;BME280;1033;52.560;13.374;2023-08-07T05:56:06;99757.94;;;16.53;93.52
67015;BME280;1033;52.560;13.374;2023-08-07T05:58:35;99762.66;;;16.63;93.74
67015;BME280;1033;52.560;13.374;2023-08-07T06:01:05;99758.88;;;16.74;92.24
67015;BME280;1033;52.560;13.374;2023-08-07T06:03:34;99752.59;;;16.83;91.62
67015;BME280;1033;52.560;13.374;2023-08-07T06:06:03;99754.72;;;16.66;91.50
67015;BME280;1033;52.560;13.374;2023-08-07T06:08:32;99755.03;;;16.70;92.53
67015;BME280;1033;52.560;13.374;2023-08-07T06:11:01;99759.69;;;16.94;91.14
67015;BME280;1033;52.560;13.374;2023-08-07T06:13:34;99755.38;;;17.04;89.30
67015;BME280;1033;52.560;13.374;2023-08-07T06:16:04;99763.03;;;17.17;89.73
67015;BME280;1033;52.560;13.374;2023-08-07T06:18:34;99775.03;;;17.21;88.20
67015;BME280;1033;52.560;13.374;2023-08-07T06:21:03;99773.66;;;17.23;88.20
67015;BME280;1033;52.560;13.374;2023-08-07T06:23:34;99774.50;;;17.29;87.74
67015;BME280;1033;52.560;13.374;2023-08-07T06:26:03;99788.16;;;17.39;87.39
67015;BME280;1033;52.560;13.374;2023-08-07T06:28:34;99791.44;;;17.11;87.73
67015;BME280;1033;52.560;13.374;2023-08-07T06:31:06;99787.34;;;17.33;87.42
67015;BME280;1033;52.560;13.374;2023-08-07T06:33:36;99785.97;;;17.21;87.54
67015;BME280;1033;52.560;13.374;2023-08-07T06:36:06;99783.22;;;17.01;86.60
67015;BME280;1033;52.560;13.374;2023-08-07T06:38:36;99795.25;;;17.10;86.38
67015;BME280;1033;52.560;13.374;2023-08-07T06:44:36;99801.00;;;17.28;86.60
67015;BME280;1033;52.560;13.374;2023-08-07T06:47:06;99789.84;;;17.60;83.68
67015;BME280;1033;52.560;13.374;2023-08-07T06:49:37;99802.41;;;17.36;83.27
67015;BME280;1033;52.560;13.374;2023-08-07T06:52:07;99802.13;;;17.37;83.59
67015;BME280;1033;52.560;13.374;2023-08-07T06:54:36;99802.66;;;17.55;81.83
67015;BME280;1033;52.560;13.374;2023-08-07T06:57:05;99804.56;;;17.34;82.44
67015;BME280;1033;52.560;13.374;2023-08-07T06:59:35;99795.31;;;17.65;82.07
67015;BME280;1033;52.560;13.374;2023-08-07T07:02:06;99800.78;;;17.75;81.21
67015;BME280;1033;52.560;13.374;2023-08-07T07:04:35;99810.06;;;17.85;80.26
67015;BME280;1033;52.560;13.374;2023-08-07T07:07:05;99817.16;;;18.01;79.51
67015;BME280;1033;52.560;13.374;2023-08-07T07:09:34;99813.00;;;18.13;77.74
67015;BME280;1033;52.560;13.374;2023-08-07T07:12:03;99816.56;;;18.24;76.97
67015;BME280;1033;52.560;13.374;2023-08-07T07:14:34;99820.91;;;18.25;77.15
67015;BME280;1033;52.560;13.374;2023-08-07T07:17:04;99818.16;;;18.30;75.18
67015;BME280;1033;52.560;13.374;2023-08-07T07:19:33;99823.59;;;18.40;75.26
67015;BME280;1033;52.560;13.374;2023-08-07T07:22:03;99817.34;;;18.35;74.83
67015;BME280;1033;52.560;13.374;2023-08-07T07:28:42;99827.19;;;18.31;74.13
67015;BME280;1033;52.560;13.374;2023-08-07T07:32:09;99838.97;;;18.31;73.93
67015;BME280;1033;52.560;13.374;2023-08-07T07:34:39;99825.78;;;18.53;73.45
67015;BME280;1033;52.560;13.374;2023-08-07T07:37:08;99832.75;;;18.85;73.04
67015;BME280;1033;52.560;13.374;2023-08-07T07:39:37;99844.78;;;18.89;72.68
67015;BME280;1033;52.560;13.374;2023-08-07T07:42:08;99838.38;;;18.54;73.66
67015;BME280;1033;52.560;13.374;2023-08-07T07:44:37;99835.88;;;18.63;72.44
67015;BME280;1033;52.560;13.374;2023-08-07T07:47:09;99834.25;;;18.52;72.62
67015;BME280;1033;52.560;13.374;2023-08-07T07:49:46;99838.81;;;18.82;71.68
67015;BME280;1033;52.560;13.374;2023-08-07T07:52:16;99844.84;;;18.79;71.46
67015;BME280;1033;52.560;13.374;2023-08-07T07:54:46;99845.72;;;18.64;71.22
67015;BME280;1033;52.560;13.374;2023-08-07T07:57:15;99853.09;;;18.74;71.16
67015;BME280;1033;52.560;13.374;2023-08-07T07:59:46;99856.16;;;18.62;71.22
67015;BME280;1033;52.560;13.374;2023-08-07T08:02:18;99849.38;;;18.39;72.26
67015;BME280;1033;52.560;13.374;2023-08-07T08:04:49;99865.47;;;18.51;71.84
67015;BME280;1033;52.560;13.374;2023-08-07T08:07:18;99849.25;;;18.75;71.83
67015;BME280;1033;52.560;13.374;2023-08-07T08:09:47;99857.81;;;18.63;71.74
67015;BME280;1033;52.560;13.374;2023-08-07T08:12:17;99856.34;;;18.81;72.14
67015;BME280;1033;52.560;13.374;2023-08-07T08:14:46;99864.22;;;18.97;71.63
67015;BME280;1033;52.560;13.374;2023-08-07T08:17:25;99864.38;;;18.67;71.78
67015;BME280;1033;52.560;13.374;2023-08-07T08:19:55;99858.53;;;18.79;72.69
67015;BME280;1033;52.560;13.374;2023-08-07T08:22:43;99868.66;;;18.83;72.54
67015;BME280;1033;52.560;13.374;2023-08-07T08:25:12;99873.00;;;18.94;72.78
67015;BME280;1033;52.560;13.374;2023-08-07T08:27:41;99869.59;;;18.63;72.78
67015;BME280;1033;52.560;13.374;2023-08-07T08:30:10;99872.88;;;18.60;73.28
67015;BME280;1033;52.560;13.374;2023-08-07T08:32:42;99881.09;;;18.60;74.36
67015;BME280;1033;52.560;13.374;2023-08-07T08:35:12;99876.69;;;18.49;74.68
67015;BME280;1033;52.560;13.374;2023-08-07T08:37:41;99881.31;;;18.69;74.85
67015;BME280;1033;52.560;13.374;2023-08-07T08:40:10;99877.03;;;19.12;73.76
67015;BME280;1033;52.560;13.374;2023-08-07T08:42:46;99883.00;;;19.19;71.43
67015;BME280;1033;52.560;13.374;2023-08-07T08:45:16;99874.38;;;18.97;71.79
67015;BME280;1033;52.560;13.374;2023-08-07T08:47:47;99881.22;;;19.48;70.79
67015;BME280;1033;52.560;13.374;2023-08-07T08:50:21;99876.78;;;19.52;70.59
67015;BME280;1033;52.560;13.374;2023-08-07T08:52:52;99869.34;;;19.58;69.97
67015;BME280;1033;52.560;13.374;2023-08-07T08:55:22;99876.13;;;19.66;67.94
67015;BME280;1033;52.560;13.374;2023-08-07T08:57:56;99878.69;;;19.91;66.57
67015;BME280;1033;52.560;13.374;2023-08-07T09:00:29;99877.38;;;19.83;67.17
67015;BME280;1033;52.560;13.374;2023-08-07T09:03:01;99871.94;;;20.07;66.69
67015;BME280;1033;52.560;13.374;2023-08-07T09:05:32;99876.25;;;19.89;66.84
67015;BME280;1033;52.560;13.374;2023-08-07T09:08:02;99877.78;;;19.67;67.10
67015;BME280;1033;52.560;13.374;2023-08-07T09:10:32;99879.94;;;19.75;67.20
67015;BME280;1033;52.560;13.374;2023-08-07T09:13:03;99878.88;;;20.00;64.60
67015;BME280;1033;52.560;13.374;2023-08-07T09:15:33;99871.03;;;20.17;64.26
67015;BME280;1033;52.560;13.374;2023-08-07T09:18:07;99876.56;;;20.41;63.85
67015;BME280;1033;52.560;13.374;2023-08-07T09:20:38;99887.56;;;20.41;62.89
67015;BME280;1033;52.560;13.374;2023-08-07T09:23:08;99881.69;;;20.52;64.12
67015;BME280;1033;52.560;13.374;2023-08-07T09:25:37;99888.50;;;19.97;65.15
67015;BME280;1033;52.560;13.374;2023-08-07T09:28:06;99883.50;;;20.38;64.29
67015;BME280;1033;52.560;13.374;2023-08-07T09:30:39;99877.25;;;20.27;65.37
67015;BME280;1033;52.560;13.374;2023-08-07T09:33:11;99879.66;;;20.05;65.30
67015;BME280;1033;52.560;13.374;2023-08-07T09:35:40;99883.81;;;20.31;65.22
67015;BME280;1033;52.560;13.374;2023-08-07T09:38:09;99894.38;;;20.14;64.34
67015;BME280;1033;52.560;13.374;2023-08-07T09:45:36;99896.56;;;20.17;63.58
67015;BME280;1033;52.560;13.374;2023-08-07T09:48:10;99893.09;;;20.07;64.44
67015;BME280;1033;52.560;13.374;2023-08-07T09:50:39;99899.34;;;19.83;64.52
67015;BME280;1033;52.560;13.374;2023-08-07T09:53:09;99891.31;;;19.92;64.88
67015;BME280;1033;52.560;13.374;2023-08-07T09:55:38;99891.94;;;19.84;65.67
67015;BME280;1033;52.560;13.374;2023-08-07T09:58:09;99894.97;;;20.11;65.94
67015;BME280;1033;52.560;13.374;2023-08-07T10:00:41;99883.31;;;20.24;65.84
67015;BME280;1033;52.560;13.374;2023-08-07T10:03:12;99902.44;;;20.06;65.33
67015;BME280;1033;52.560;13.374;2023-08-07T10:05:43;99906.88;;;19.68;66.72
67015;BME280;1033;52.560;13.374;2023-08-07T10:08:12;99902.06;;;19.49;67.28
67015;BME280;1033;52.560;13.374;2023-08-07T10:10:41;99904.84;;;20.12;65.17
67015;BME280;1033;52.560;13.374;2023-08-07T10:13:13;99910.31;;;20.17;64.40
67015;BME280;1033;52.560;13.374;2023-08-07T10:15:46;99907.25;;;20.19;63.20
67015;BME280;1033;52.560;13.374;2023-08-07T10:18:17;99905.50;;;20.04;63.18
67015;BME280;1033;52.560;13.374;2023-08-07T10:20:49;99904.66;;;20.37;62.24
67015;BME280;1033;52.560;13.374;2023-08-07T10:23:19;99909.66;;;20.78;61.59
67015;BME280;1033;52.560;13.374;2023-08-07T10:25:50;99898.44;;;20.51;61.48
67015;BME280;1033;52.560;13.374;2023-08-07T10:28:20;99899.03;;;20.48;60.90
67015;BME280;1033;52.560;13.374;2023-08-07T10:30:57;99895.97;;;20.73;60.35
67015;BME280;1033;52.560;13.374;2023-08-07T10:33:29;99900.72;;;20.44;59.69
67015;BME280;1033;52.560;13.374;2023-08-07T10:35:59;99900.44;;;20.45;59.96
67015;BME280;1033;52.560;13.374;2023-08-07T10:38:28;99898.50;;;20.69;59.45
67015;BME280;1033;52.560;13.374;2023-08-07T10:41:01;99902.59;;;21.19;58.95
67015;BME280;1033;52.560;13.374;2023-08-07T10:43:35;99888.13;;;20.66;57.31
67015;BME280;1033;52.560;13.374;2023-08-07T10:46:05;99884.38;;;21.00;57.42
67015;BME280;1033;52.560;13.374;2023-08-07T10:48:44;99882.31;;;20.68;57.58
67015;BME280;1033;52.560;13.374;2023-08-07T10:51:15;99883.88;;;20.74;57.99
67015;BME280;1033;52.560;13.374;2023-08-07T10:53:46;99887.91;;;20.34;60.02
67015;BME280;1033;52.560;13.374;2023-08-07T10:56:17;99897.63;;;19.92;63.47
67015;BME280;1033;52.560;13.374;2023-08-07T10:58:49;99912.41;;;19.63;65.30
67015;BME280;1033;52.560;13.374;2023-08-07T11:01:27;99904.84;;;19.44;64.17
67015;BME280;1033;52.560;13.374;2023-08-07T11:04:08;99916.47;;;19.70;64.18
67015;BME280;1033;52.560;13.374;2023-08-07T11:06:39;99933.81;;;19.94;63.25
67015;BME280;1033;52.560;13.374;2023-08-07T11:09:09;99939.47;;;19.30;65.97
67015;BME280;1033;52.560;13.374;2023-08-07T11:11:40;99946.13;;;19.14;68.36
67015;BME280;1033;52.560;13.374;2023-08-07T11:14:10;99947.41;;;18.52;74.26
67015;BME280;1033;52.560;13.374;2023-08-07T11:16:40;99938.13;;;18.28;78.00
67015;BME280;1033;52.560;13.374;2023-08-07T11:19:13;99930.41;;;18.50;78.82
67015;BME280;1033;52.560;13.374;2023-08-07T11:21:42;99934.78;;;18.66;77.60
67015;BME280;1033;52.560;13.374;2023-08-07T11:24:13;99940.69;;;19.04;76.77
67015;BME280;1033;52.560;13.374;2023-08-07T11:26:43;99935.50;;;19.02;77.29
67015;BME280;1033;52.560;13.374;2023-08-07T11:29:16;99941.78;;;18.98;76.38
67015;BME280;1033;52.560;13.374;2023-08-07T11:31:46;99941.84;;;18.88;76.90
67015;BME280;1033;52.560;13.374;2023-08-07T11:34:17;99943.66;;;19.13;77.75
67015;BME280;1033;52.560;13.374;2023-08-07T11:36:47;99938.91;;;19.28;74.91
67015;BME280;1033;52.560;13.374;2023-08-07T11:39:20;99944.34;;;19.38;74.54
67015;BME280;1033;52.560;13.374;2023-08-07T11:41:51;99958.06;;;19.38;74.08
67015;BME280;1033;52.560;13.374;2023-08-07T11:44:20;99948.50;;;19.31;72.64
67015;BME280;1033;52.560;13.374;2023-08-07T11:46:51;99942.91;;;19.51;72.53
67015;BME280;1033;52.560;13.374;2023-08-07T11:49:48;99933.56;;;20.25;71.06
67015;BME280;1033;52.560;13.374;2023-08-07T11:52:17;99935.44;;;20.01;70.07
67015;BME280;1033;52.560;13.374;2023-08-07T11:54:47;99932.28;;;20.17;70.29
67015;BME280;1033;52.560;13.374;2023-08-07T11:57:18;99932.22;;;20.22;68.85
67015;BME280;1033;52.560;13.374;2023-08-07T11:59:50;99923.41;;;20.25;69.44
67015;BME280;1033;52.560;13.374;2023-08-07T12:02:24;99917.84;;;20.35;69.44
67015;BME280;1033;52.560;13.374;2023-08-07T12:04:59;99924.66;;;20.67;67.26
67015;BME280;1033;52.560;13.374;2023-08-07T12:07:28;99911.03;;;20.57;66.10
67015;BME280;1033;52.560;13.374;2023-08-07T12:10:03;99918.69;;;20.60;66.59
67015;BME280;1033;52.560;13.374;2023-08-07T12:12:33;99920.91;;;21.05;65.53
67015;BME280;1033;52.560;13.374;2023-08-07T12:15:04;99926.91;;;21.31;64.67
67015;BME280;1033;52.560;13.374;2023-08-07T12:21:25;99919.63;;;20.74;65.14
67015;BME280;1033;52.560;13.374;2023-08-07T12:23:56;99922.22;;;21.32;64.30
67015;BME280;1033;52.560;13.374;2023-08-07T12:26:25;99933.75;;;21.34;63.65
67015;BME280;1033;52.560;13.374;2023-08-07T12:28:54;99939.53;;;21.13;63.34
67015;BME280;1033;52.560;13.374;2023-08-07T12:31:23;99927.78;;;21.03;63.89
67015;BME280;1033;52.560;13.374;2023-08-07T12:33:53;99940.59;;;21.12;63.04
67015;BME280;1033;52.560;13.374;2023-08-07T12:36:24;99927.09;;;21.16;63.31
67015;BME280;1033;52.560;13.374;2023-08-07T12:38:53;99916.28;;;21.24;62.15
67015;BME280;1033;52.560;13.374;2023-08-07T12:41:22;99934.88;;;21.51;60.10
67015;BME280;1033;52.560;13.374;2023-08-07T12:43:54;99938.28;;;20.77;58.93
67015;BME280;1033;52.560;13.374;2023-08-07T12:46:23;99933.41;;;20.69;58.37
67015;BME280;1033;52.560;13.374;2023-08-07T12:48:58;99950.72;;;20.46;57.63
67015;BME280;1033;52.560;13.374;2023-08-07T12:51:29;99938.56;;;20.52;58.66
67015;BME280;1033;52.560;13.374;2023-08-07T12:53:58;99949.78;;;20.55;56.78
67015;BME280;1033;52.560;13.374;2023-08-07T12:56:28;99938.78;;;20.31;57.93
67015;BME280;1033;52.560;13.374;2023-08-07T12:58:57;99959.56;;;20.09;57.67
67015;BME280;1033;52.560;13.374;2023-08-07T13:01:26;99946.41;;;20.34;56.45
67015;BME280;1033;52.560;13.374;2023-08-07T13:03:55;99953.66;;;20.54;56.70
67015;BME280;1033;52.560;13.374;2023-08-07T13:06:25;99937.41;;;20.81;55.86
67015;BME280;1033;52.560;13.374;2023-08-07T13:08:55;99948.41;;;21.05;55.70
67015;BME280;1033;52.560;13.374;2023-08-07T13:11:25;99949.78;;;21.27;55.80
67015;BME280;1033;52.560;13.374;2023-08-07T13:13:54;99947.22;;;21.11;54.60
67015;BME280;1033;52.560;13.374;2023-08-07T13:16:24;99957.22;;;21.02;53.46
67015;BME280;1033;52.560;13.374;2023-08-07T13:18:53;99940.56;;;20.94;51.99
67015;BME280;1033;52.560;13.374;2023-08-07T13:21:22;99955.13;;;20.94;nan
67015;BME280;1033;52.560;13.374;2023-08-07T13:23:52;99956.34;;;20.83;48.81
67015;BME280;1033;52.560;13.374;2023-08-07T13:26:23;99956.03;;;21.13;48.98
67015;BME280;1033;52.560;13.374;2023-08-07T13:28:52;99975.50;;;21.17;49.86
67015;BME280;1033;52.560;13.374;2023-08-07T13:31:22;99952.16;;;21.14;48.65
67015;BME280;1033;52.560;13.374;2023-08-07T13:33:51;99968.72;;;21.52;48.00
67015;BME280;1033;52.560;13.374;2023-08-07T13:36:20;99977.53;;;21.54;46.58
67015;BME280;1033;52.560;13.374;2023-08-07T13:38:49;99978.59;;;21.34;47.72
67015;BME280;1033;52.560;13.374;2023-08-07T13:41:19;100001.41;;;21.58;46.31
67015;BME280;1033;52.560;13.374;2023-08-07T13:43:50;99991.09;;;21.45;46.47